Country
Station

 

Weather  for  Charleroi/Gosselies  -  Belgium    Belgium

  
13 °C (55 °F)
    
 
 

Current METAR for Charleroi/Gosselies is :

EBCI 161250Z 19013KT 4000 -RADZ BKN007 BKN011 13/12 Q1008 TEMPO 2500 RADZ

 

This is a report for Charleroi/Gosselies - Belgium.
 
The report was made 18 minutes ago, at 12:50 UTC .
The wind was blowing at a speed of 6.7 meters per second (15.0 miles per hour) from south (190°).
 
The temperature was 13 °C (55 °F), with a dew-point at 12 °C (54 °F).
The atmospheric pressure was 1008 hPa (29.77 inHg).
The relative humidity was 93.6%.
 
There were broken clouds at a height of 213 meters (700 feet) and broken clouds at a height of 335 meters (1100 feet).
 
The overall visibility was 4000 meter (13123 feet).
 
Currently light rain, drizzle.

 
 
 
 

Country :   A   B   C   D   E   F   G   H   I   J   K   L   M   N   O   P   Q   R   S   T   U   V   W   Y   Z

 

Site Info  |  Disclaimer  |  Credits  |  Privacy
Contact us  |  Add to favorites
© 2013-2019 METARs - All rights reserved